createdAt,value
2024-05-09T00:00:29.594Z,100910.22
2024-05-09T00:04:36.974Z,100910.28
2024-05-09T00:08:22.911Z,100905.09
2024-05-09T00:12:11.071Z,100901.63
2024-05-09T00:15:56.674Z,100904.28
2024-05-09T00:19:42.509Z,100893.84
2024-05-09T00:23:29.349Z,100909.53
2024-05-09T00:27:17.938Z,100900.84
2024-05-09T00:31:03.758Z,100903.47
2024-05-09T00:34:49.875Z,100902.59
2024-05-09T00:38:35.619Z,100910.47
2024-05-09T00:42:24.035Z,100914.84
2024-05-09T00:46:10.172Z,100917.47
2024-05-09T00:49:56.578Z,100919.25
2024-05-09T00:53:42.174Z,100918.41
2024-05-09T00:57:30.735Z,100924.47
2024-05-09T01:01:16.726Z,100923.59
2024-05-09T01:05:02.893Z,100912.28
2024-05-09T01:08:48.117Z,100917.50
2024-05-09T01:12:36.401Z,100919.22
2024-05-09T01:16:21.986Z,100927.91
2024-05-09T01:20:10.754Z,100928.75
2024-05-09T01:24:04.795Z,100927.91
2024-05-09T01:27:50.263Z,100927.88
2024-05-09T01:31:36.393Z,100933.06
2024-05-09T01:35:23.793Z,100933.03
2024-05-09T01:39:12.275Z,100931.28
2024-05-09T01:43:03.741Z,100932.09
2024-05-09T01:46:49.416Z,100932.03
2024-05-09T01:50:39.626Z,100935.47
2024-05-09T01:54:30.208Z,100927.66
2024-05-09T01:58:16.149Z,100924.13
2024-05-09T02:02:01.908Z,100934.50
2024-05-09T02:05:48.597Z,100928.38
2024-05-09T02:09:36.557Z,100933.53
2024-05-09T02:13:22.321Z,100927.44
2024-05-09T02:17:08.296Z,100924.81
2024-05-09T02:20:53.653Z,100923.91
2024-05-09T02:24:42.122Z,100931.63
2024-05-09T02:28:27.704Z,100938.50
2024-05-09T02:32:13.405Z,100941.00
2024-05-09T02:35:59.112Z,100941.03
2024-05-09T02:39:44.703Z,100937.50
2024-05-09T02:43:30.382Z,100940.03
2024-05-09T02:47:16.185Z,100933.94
2024-05-09T02:51:01.606Z,100935.69
2024-05-09T02:54:49.807Z,100934.78
2024-05-09T02:58:35.247Z,100931.22
2024-05-09T03:02:20.870Z,100940.72
2024-05-09T03:06:06.190Z,100942.50
2024-05-09T03:09:54.359Z,100933.81
2024-05-09T03:13:44.469Z,100945.06
2024-05-09T03:17:30.228Z,100942.56
2024-05-09T03:21:13.442Z,100945.22
2024-05-09T03:25:01.940Z,100940.03
2024-05-09T03:28:48.237Z,100937.50
2024-05-09T03:32:33.449Z,100937.56
2024-05-09T03:36:16.481Z,100939.34
2024-05-09T03:40:09.192Z,100945.47
2024-05-09T03:43:57.408Z,100942.94
2024-05-09T03:47:43.166Z,100950.00
2024-05-09T03:51:28.983Z,100950.94
2024-05-09T03:55:17.424Z,100948.44
2024-05-09T03:59:00.658Z,100946.78
2024-05-09T04:02:46.716Z,100947.78
2024-05-09T04:06:32.341Z,100944.41
2024-05-09T04:10:27.794Z,100938.38
2024-05-09T04:14:18.532Z,100936.63
2024-05-09T04:18:04.347Z,100941.81
2024-05-09T04:21:50.324Z,100940.78
2024-05-09T04:25:38.524Z,100937.13
2024-05-09T04:29:23.800Z,100940.19
2024-05-09T04:33:11.940Z,100924.19
2024-05-09T04:36:59.605Z,100917.69
2024-05-09T04:40:48.027Z,100916.78
2024-05-09T04:44:33.926Z,100917.22
2024-05-09T04:48:19.495Z,100928.63
2024-05-09T04:52:05.260Z,100929.94
2024-05-09T04:55:51.512Z,100926.13
2024-05-09T04:59:37.270Z,100924.94
2024-05-09T05:03:23.078Z,100923.09
2024-05-09T05:07:05.770Z,100929.41
2024-05-09T05:10:54.131Z,100939.41
2024-05-09T05:14:37.297Z,100933.41
2024-05-09T05:18:22.713Z,100940.06
2024-05-09T05:22:08.485Z,100937.41
2024-05-09T05:25:54.854Z,100939.56
2024-05-09T05:29:40.747Z,100943.44
2024-05-09T05:33:26.662Z,100931.63
2024-05-09T05:37:09.886Z,100932.47
2024-05-09T05:40:58.044Z,100926.59
2024-05-09T05:44:43.622Z,100928.41
2024-05-09T05:48:28.893Z,100938.94
2024-05-09T05:52:14.826Z,100927.41
2024-05-09T05:56:00.432Z,100920.34
2024-05-09T05:59:46.183Z,100931.75
2024-05-09T06:03:31.929Z,100928.19
2024-05-09T06:07:15.058Z,100940.53
2024-05-09T06:11:03.212Z,100932.53
2024-05-09T06:14:48.743Z,100928.47
2024-05-09T06:18:34.616Z,100929.03
2024-05-09T06:22:17.881Z,100940.22
2024-05-09T06:26:07.948Z,100941.31
2024-05-09T06:29:53.603Z,100930.47
2024-05-09T06:33:39.383Z,100935.50
2024-05-09T06:37:25.340Z,100936.63
2024-05-09T06:41:13.792Z,100935.13
2024-05-09T06:44:59.398Z,100932.69
2024-05-09T06:48:43.396Z,100931.03
2024-05-09T06:52:29.114Z,100928.38
2024-05-09T06:56:17.878Z,100940.03
2024-05-09T07:00:03.756Z,100936.13
2024-05-09T07:03:49.614Z,100931.69
2024-05-09T07:07:35.334Z,100926.00
2024-05-09T07:11:23.716Z,100923.63
2024-05-09T07:15:09.528Z,100913.53
2024-05-09T07:18:57.221Z,100923.81
2024-05-09T07:22:43.075Z,100916.81
2024-05-09T07:26:31.381Z,100913.63
2024-05-09T07:30:26.954Z,100910.88
2024-05-09T07:34:16.835Z,100917.44
2024-05-09T07:38:00.057Z,100904.22
2024-05-09T07:41:48.326Z,100908.69
2024-05-09T07:53:37.102Z,100906.56
2024-05-09T07:57:19.346Z,100903.25
2024-05-09T08:01:05.858Z,100909.22
2024-05-09T08:04:51.729Z,100903.28
2024-05-09T08:08:37.725Z,100906.88
2024-05-09T08:12:25.943Z,100905.84
2024-05-09T08:16:12.566Z,100904.63
2024-05-09T08:19:58.386Z,100901.59
2024-05-09T08:23:44.364Z,100893.88
2024-05-09T08:27:32.573Z,100892.50
2024-05-09T08:31:18.361Z,100891.38
2024-05-09T08:35:04.280Z,100888.06
2024-05-09T08:38:49.952Z,100884.22
2024-05-09T08:42:39.799Z,100884.28
2024-05-09T08:46:25.876Z,100879.84
2024-05-09T08:50:24.310Z,100890.41
2024-05-09T08:54:18.212Z,100876.88
2024-05-09T08:58:08.586Z,100885.59
2024-05-09T09:01:52.463Z,100889.25
2024-05-09T09:05:41.855Z,100879.63
2024-05-09T09:09:27.760Z,100874.66
2024-05-09T09:13:16.160Z,100864.50
2024-05-09T09:17:01.472Z,100869.31
2024-05-09T09:20:47.574Z,100863.53
2024-05-09T09:24:33.264Z,100871.69
2024-05-09T09:28:25.536Z,100865.59
2024-05-09T09:32:09.114Z,100858.69
2024-05-09T09:35:54.933Z,100860.19
2024-05-09T09:39:49.005Z,100864.06
2024-05-09T09:43:39.006Z,100859.78
2024-05-09T09:47:26.237Z,100853.09
2024-05-09T09:51:12.381Z,100846.06
2024-05-09T09:54:59.466Z,100845.28
2024-05-09T09:58:48.423Z,100849.34
2024-05-09T10:02:34.352Z,100848.75
2024-05-09T10:06:21.276Z,100848.66
2024-05-09T10:10:11.000Z,100848.63
2024-05-09T10:14:03.926Z,100846.91
2024-05-09T10:17:51.199Z,100845.06
2024-05-09T10:21:37.049Z,100843.94
2024-05-09T10:25:23.960Z,100839.09
2024-05-09T10:29:19.882Z,100842.28
2024-05-09T10:33:03.143Z,100837.53
2024-05-09T10:36:49.005Z,100842.03
2024-05-09T10:40:34.836Z,100844.06
2024-05-09T10:44:24.517Z,100843.22
2024-05-09T10:48:11.806Z,100835.63
2024-05-09T10:51:57.483Z,100838.00
2024-05-09T10:55:43.202Z,100828.72
2024-05-09T10:59:36.071Z,100824.88
2024-05-09T11:03:19.258Z,100809.22
2024-05-09T11:07:07.541Z,100823.19
2024-05-09T11:10:54.816Z,100818.78
2024-05-09T11:14:40.437Z,100813.56
2024-05-09T11:18:29.767Z,100814.38
2024-05-09T11:22:17.845Z,100801.78
2024-05-09T11:26:04.353Z,100797.69
2024-05-09T11:29:52.565Z,100804.59
2024-05-09T11:33:37.575Z,100806.06
2024-05-09T11:37:23.371Z,100795.34
2024-05-09T11:41:09.489Z,100787.72
2024-05-09T11:44:57.693Z,100790.97
2024-05-09T11:48:43.844Z,100797.31
2024-05-09T11:52:29.581Z,100780.59
2024-05-09T11:56:15.663Z,100773.97
2024-05-09T12:00:01.123Z,100779.44
2024-05-09T12:03:48.779Z,100776.88
2024-05-09T12:07:31.952Z,100768.38
2024-05-09T12:11:17.830Z,100777.88
2024-05-09T12:15:06.222Z,100769.19
2024-05-09T12:18:52.086Z,100769.00
2024-05-09T12:22:38.809Z,100770.91
2024-05-09T12:26:24.608Z,100772.00
2024-05-09T12:30:20.780Z,100767.34
2024-05-09T12:34:14.341Z,100752.19
2024-05-09T12:38:00.197Z,100745.28
2024-05-09T12:41:43.627Z,100749.28
2024-05-09T12:45:32.157Z,100741.56
2024-05-09T12:49:20.123Z,100730.97
2024-05-09T13:06:09.082Z,100724.72
2024-05-09T13:09:54.931Z,100722.22
2024-05-09T13:13:40.627Z,100717.63
2024-05-09T13:17:26.289Z,100706.88
2024-05-09T13:21:12.116Z,100705.69
2024-05-09T13:24:57.906Z,100708.00
2024-05-09T13:28:43.623Z,100711.91
2024-05-09T13:32:26.690Z,100704.84
2024-05-09T13:36:14.973Z,100697.59
2024-05-09T13:39:58.011Z,100692.88
2024-05-09T13:43:43.691Z,100692.69
2024-05-09T13:47:26.714Z,100696.97
2024-05-09T13:51:14.619Z,100686.16
2024-05-09T13:54:58.714Z,100690.53
2024-05-09T13:58:44.638Z,100682.31
2024-05-09T14:02:32.186Z,100678.00
2024-05-09T14:06:20.466Z,100671.47
2024-05-09T14:10:05.225Z,100667.50
2024-05-09T14:13:52.089Z,100663.31
2024-05-09T14:17:35.399Z,100657.09
2024-05-09T14:21:23.722Z,100654.00
2024-05-09T14:25:09.867Z,100648.53
2024-05-09T14:28:55.672Z,100646.06
2024-05-09T14:32:41.334Z,100635.69
2024-05-09T14:36:29.710Z,100629.50
2024-05-09T14:40:30.420Z,100620.94
2024-05-09T14:44:21.372Z,100620.19
2024-05-09T14:48:07.854Z,100615.56
2024-05-09T14:51:56.375Z,100610.53
2024-05-09T14:55:41.354Z,100615.03
2024-05-09T14:59:28.170Z,100607.25
2024-05-09T15:03:13.927Z,100606.69
2024-05-09T15:07:00.454Z,100605.19
2024-05-09T15:10:46.741Z,100605.03
2024-05-09T15:14:29.970Z,100595.41
2024-05-09T15:18:15.864Z,100590.38
2024-05-09T15:22:04.615Z,100594.88
2024-05-09T15:25:50.294Z,100589.19
2024-05-09T15:29:36.055Z,100580.44
2024-05-09T15:33:18.782Z,100592.28
2024-05-09T15:37:08.740Z,100578.09
2024-05-09T15:40:54.351Z,100583.53
2024-05-09T15:44:37.458Z,100591.88
2024-05-09T15:48:23.185Z,100589.63
2024-05-09T15:52:11.896Z,100579.72
2024-05-09T15:55:57.666Z,100573.03
2024-05-09T15:59:43.710Z,100569.13
2024-05-09T16:03:29.312Z,100561.56
2024-05-09T16:07:17.719Z,100552.41
2024-05-09T16:11:03.029Z,100547.19
2024-05-09T16:14:51.054Z,100551.69
2024-05-09T16:18:36.907Z,100549.19
2024-05-09T16:22:25.284Z,100541.28
2024-05-09T16:26:11.125Z,100548.03
2024-05-09T16:29:55.996Z,100555.78
2024-05-09T16:33:41.988Z,100555.19
2024-05-09T16:37:30.439Z,100544.50
2024-05-09T16:41:15.111Z,100553.53
2024-05-09T16:45:02.008Z,100550.16
2024-05-09T16:48:48.315Z,100547.88
2024-05-09T16:52:36.729Z,100543.94
2024-05-09T16:56:23.925Z,100548.25
2024-05-09T17:00:18.079Z,100552.00
2024-05-09T17:04:11.456Z,100551.72
2024-05-09T17:08:00.172Z,100549.84
2024-05-09T17:11:45.861Z,100543.06
2024-05-09T17:15:31.797Z,100544.91
2024-05-09T17:19:17.367Z,100543.16
2024-05-09T17:23:12.865Z,100550.56
2024-05-09T17:26:58.943Z,100550.81
2024-05-09T17:30:44.968Z,100552.75
2024-05-09T17:34:31.067Z,100546.97
2024-05-09T17:38:19.575Z,100544.44
2024-05-09T17:42:05.613Z,100554.09
2024-05-09T17:45:51.291Z,100555.78
2024-05-09T17:49:34.444Z,100554.19
2024-05-09T17:53:22.903Z,100556.06
2024-05-09T17:57:09.425Z,100556.91
2024-05-09T18:00:55.103Z,100561.44
2024-05-09T18:04:41.254Z,100554.44
2024-05-09T18:08:27.006Z,100561.38
2024-05-09T18:12:12.776Z,100562.88
2024-05-09T18:15:58.450Z,100564.63
2024-05-09T18:19:41.508Z,100572.56
2024-05-09T18:23:30.930Z,100576.06
2024-05-09T18:27:16.749Z,100575.97
2024-05-09T18:30:59.686Z,100570.44
2024-05-09T18:34:44.828Z,100586.00
2024-05-09T18:38:32.996Z,100587.38
2024-05-09T18:42:18.505Z,100587.09
2024-05-09T18:46:01.570Z,100593.53
2024-05-09T18:49:47.246Z,100599.34
2024-05-09T18:53:35.444Z,100601.63
2024-05-09T18:57:21.178Z,100600.31
2024-05-09T19:01:07.359Z,100599.69
2024-05-09T19:04:53.297Z,100604.69
2024-05-09T19:08:41.219Z,100602.44
2024-05-09T19:12:24.152Z,100607.13
2024-05-09T19:16:10.221Z,100612.03
2024-05-09T19:19:53.301Z,100597.47
2024-05-09T19:23:47.125Z,100605.78
2024-05-09T19:27:37.713Z,100603.56
2024-05-09T19:31:24.164Z,100607.56
2024-05-09T19:35:10.141Z,100617.63
2024-05-09T19:38:58.371Z,100608.13
2024-05-09T19:42:44.235Z,100612.88
2024-05-09T19:46:30.357Z,100603.63
2024-05-09T19:50:19.561Z,100609.06
2024-05-09T19:54:13.672Z,100614.63
2024-05-09T19:58:01.024Z,100609.56
2024-05-09T20:01:48.548Z,100616.88
2024-05-09T20:05:34.445Z,100613.63
2024-05-09T20:09:25.586Z,100626.13
2024-05-09T20:13:11.468Z,100627.38
2024-05-09T20:16:57.449Z,100621.41
2024-05-09T20:20:44.958Z,100619.09
2024-05-09T20:24:36.520Z,100616.63
2024-05-09T20:28:22.353Z,100612.38
2024-05-09T20:32:08.700Z,100612.53
2024-05-09T20:35:55.753Z,100617.88
2024-05-09T20:39:44.243Z,100618.13
2024-05-09T20:43:29.826Z,100618.31
2024-05-09T20:47:12.887Z,100610.59
2024-05-09T20:50:58.075Z,100621.22
2024-05-09T20:54:46.376Z,100617.84
2024-05-09T20:58:32.085Z,100619.75
2024-05-09T21:02:18.075Z,100619.78
2024-05-09T21:06:03.468Z,100626.09
2024-05-09T21:09:51.726Z,100624.47
2024-05-09T21:13:37.279Z,100622.94
2024-05-09T21:17:23.022Z,100619.59
2024-05-09T21:21:06.499Z,100615.44
2024-05-09T21:24:54.753Z,100613.84
2024-05-09T21:28:37.314Z,100605.28
2024-05-09T21:32:33.825Z,100603.59
2024-05-09T21:36:20.278Z,100608.81
2024-05-09T21:40:13.790Z,100616.03
2024-05-09T21:44:02.710Z,100612.75
2024-05-09T21:47:45.724Z,100613.53
2024-05-09T21:51:32.144Z,100619.75
2024-05-09T21:55:20.412Z,100617.22
2024-05-09T21:59:05.519Z,100606.84
2024-05-09T22:02:48.649Z,100605.19
2024-05-09T22:06:34.164Z,100613.09
2024-05-09T22:10:26.886Z,100615.81
2024-05-09T22:14:18.748Z,100615.03
2024-05-09T22:18:01.859Z,100600.34
2024-05-09T22:21:47.275Z,100606.50
2024-05-09T22:25:35.585Z,100604.84
2024-05-09T22:29:21.050Z,100607.53
2024-05-09T22:33:07.787Z,100607.63
2024-05-09T22:36:53.367Z,100604.13
2024-05-09T22:40:47.482Z,100607.72
2024-05-09T22:44:35.227Z,100614.75
2024-05-09T22:48:21.083Z,100606.13
2024-05-09T22:52:07.181Z,100607.00
2024-05-09T22:55:54.959Z,100607.94
2024-05-09T22:59:40.694Z,100605.38
2024-05-09T23:03:23.760Z,100601.06
2024-05-09T23:07:11.461Z,100595.00
2024-05-09T23:10:59.815Z,100596.75
2024-05-09T23:14:45.579Z,100592.47
2024-05-09T23:18:31.314Z,100598.59
2024-05-09T23:22:17.161Z,100590.78
2024-05-09T23:26:05.677Z,100591.72
2024-05-09T23:29:48.663Z,100583.91
2024-05-09T23:33:34.314Z,100584.84
2024-05-09T23:37:19.970Z,100585.72
2024-05-09T23:41:09.226Z,100588.31
2024-05-09T23:44:55.032Z,100589.25
2024-05-09T23:48:40.818Z,100579.69
2024-05-09T23:52:26.729Z,100580.63
2024-05-09T23:56:14.427Z,100578.94
